ENHD/HAU METAR and TAF weather

Enter ICAO airport designator
Station Type Date Time Source
ENHD METAR 2019/08/19 22:20 UTC NOAA

ENHD 192220Z AUTO 21015KT 9999 FEW016/// BKN084/// 15/11 Q1007


Station Type Date Time Source
ENHD Decoded METAR 2019/08/19 22:20 UTC NOAA

Haugesund / Karmoy, Norway (ENHD) 59-21N 005-13E 24M
Aug 19, 2019 - 06:20 PM EDT / 2019.08.19 2220 UTC
Wind: from the SSW (210 degrees) at 17 MPH (15 KT):0
Visibility: greater than 7 mile(s):0
Sky conditions: mostly cloudy
Temperature: 59 F (15 C)
Dew Point: 51 F (11 C)
Relative Humidity: 76%
Pressure (altimeter): 29.74 in. Hg (1007 hPa)
ob: ENHD 192220Z AUTO 21015KT 9999 FEW016/// BKN084/// 15/11 Q1007
cycle: 22

Station Type Date Time Source
ENHD TAF UTC NOAA

Error!

Example: see airport list